Time;durP1;ratioP1;P1;durP2;ratioP2;P2;SDS_P1;SDS_P2;PMS_P1;PMS_P2;Temp;Humidity;BMP_temperature;BMP_pressure;BME280_temperature;BME280_humidity;BME280_pressure;Samples;Min_cycle;Max_cycle;Signal;HPM_P1;HPM_P2
2024/01/22 00:01:26;;;;;;;0.80;0.30;;;;;;;;;;5050964;28;20644;-74
2024/01/22 00:03:52;;;;;;;0.50;0.20;;;;;;;;;;5050578;28;20228;-72
2024/01/22 00:06:18;;;;;;;1.40;0.30;;;12.70;99.90;;;;;;5050972;28;20165;-73
2024/01/22 00:08:44;;;;;;;0.33;0.10;;;;;;;;;;5050661;28;20630;-73
2024/01/22 00:11:11;;;;;;;1.10;0.30;;;12.50;99.90;;;;;;5050850;28;20179;-73
2024/01/22 00:13:36;;;;;;;1.40;0.57;;;12.40;99.90;;;;;;5051018;28;20165;-73
2024/01/22 00:16:02;;;;;;;0.70;0.23;;;;;;;;;;5032915;28;20177;-73
2024/01/22 00:18:28;;;;;;;0.40;0.30;;;12.70;99.90;;;;;;5051415;28;20177;-70
2024/01/22 00:20:54;;;;;;;2.43;0.53;;;12.40;99.90;;;;;;5051024;28;20177;-73
2024/01/22 00:23:20;;;;;;;4.20;1.20;;;12.30;99.90;;;;;;5032990;28;20203;-73
2024/01/22 00:25:46;;;;;;;1.77;0.73;;;;;;;;;;5050864;28;20631;-73
2024/01/22 00:28:11;;;;;;;5.50;1.57;;;11.90;99.90;;;;;;5050619;28;20208;-73
2024/01/22 00:30:37;;;;;;;4.80;2.00;;;12.10;99.90;;;;;;5050672;28;20169;-73
2024/01/22 00:33:03;;;;;;;5.70;2.20;;;;;;;;;;5050490;28;20188;-72
2024/01/22 00:35:28;;;;;;;7.40;2.23;;;12.70;99.90;;;;;;5050683;28;20168;-73
2024/01/22 00:37:54;;;;;;;5.77;2.10;;;11.70;99.90;;;;;;5050520;28;20165;-73
2024/01/22 00:40:20;;;;;;;7.07;2.40;;;12.00;99.90;;;;;;5028412;28;20533;-72
2024/01/22 00:42:46;;;;;;;6.40;2.17;;;;;;;;;;5054571;28;20185;-72
2024/01/22 00:45:12;;;;;;;5.10;1.97;;;11.90;99.90;;;;;;5054406;28;20668;-72
2024/01/22 00:47:38;;;;;;;4.70;2.20;;;;;;;;;;5054373;28;20239;-72
2024/01/22 00:50:04;;;;;;;3.60;1.77;;;11.80;99.90;;;;;;5054340;28;20261;-72
2024/01/22 00:52:30;;;;;;;3.50;1.67;;;;;;;;;;5054273;28;20531;-72
2024/01/22 00:54:56;;;;;;;8.00;2.70;;;11.70;99.90;;;;;;5054201;28;20248;-72
2024/01/22 00:57:22;;;;;;;7.57;2.50;;;11.80;99.90;;;;;;5054021;28;20272;-72
2024/01/22 00:59:48;;;;;;;6.60;2.37;;;;;;;;;;5054041;28;20173;-72
2024/01/22 01:02:14;;;;;;;8.97;2.67;;;;;;;;;;5053598;28;20216;-72
2024/01/22 01:04:40;;;;;;;12.73;3.23;;;11.70;99.90;;;;;;5053483;28;20170;-72
2024/01/22 01:07:06;;;;;;;7.10;2.73;;;12.00;99.90;;;;;;5053755;28;20256;-72
2024/01/22 01:09:32;;;;;;;7.77;2.90;;;11.90;99.90;;;;;;5053567;28;20292;-72
2024/01/22 01:11:58;;;;;;;7.33;2.60;;;;;;;;;;5053590;28;20695;-72
2024/01/22 01:14:25;;;;;;;9.60;3.53;;;11.80;99.90;;;;;;5053061;28;20276;-72
2024/01/22 01:16:50;;;;;;;13.70;3.80;;;11.90;99.90;;;;;;5053275;28;20263;-72
2024/01/22 01:19:16;;;;;;;11.73;3.93;;;13.10;99.90;;;;;;5053734;28;20680;-72
2024/01/22 01:21:42;;;;;;;15.20;4.60;;;12.00;99.90;;;;;;5053648;28;20640;-72
2024/01/22 01:24:10;;;;;;;18.63;5.03;;;11.90;99.90;;;;;;5053281;28;20189;-72
2024/01/22 01:26:41;;;;;;;14.50;4.83;;;11.90;99.90;;;;;;5052883;28;20180;-73
2024/01/22 01:29:07;;;;;;;13.40;4.23;;;11.90;99.90;;;;;;5052867;28;20209;-73
2024/01/22 01:31:33;;;;;;;17.10;4.20;;;;;;;;;;5035169;28;20188;-72
2024/01/22 01:33:59;;;;;;;16.43;4.43;;;11.60;99.90;;;;;;5052594;28;20177;-73
2024/01/22 01:36:25;;;;;;;14.67;4.50;;;11.50;99.90;;;;;;5053177;28;20597;-73
2024/01/22 01:38:51;;;;;;;12.50;3.40;;;;;;;;;;5052450;28;20505;-72
2024/01/22 01:41:16;;;;;;;12.90;4.00;;;11.20;99.90;;;;;;5052529;28;20224;-74
2024/01/22 01:43:42;;;;;;;9.93;3.17;;;11.30;99.90;;;;;;5053457;28;20633;-73
2024/01/22 01:46:08;;;;;;;9.93;3.83;;;11.10;99.90;;;;;;5053397;28;20230;-73
2024/01/22 01:48:34;;;;;;;15.17;4.10;;;11.10;99.90;;;;;;5053077;28;20686;-73
2024/01/22 01:51:03;;;;;;;12.70;3.57;;;;;;;;;;5052287;28;20169;-73
2024/01/22 01:53:29;;;;;;;10.87;3.07;;;11.30;99.90;;;;;;5053237;28;20169;-73
2024/01/22 01:55:57;;;;;;;12.53;3.57;;;10.90;99.90;;;;;;5053129;28;20176;-72
2024/01/22 01:58:23;;;;;;;7.53;2.53;;;;;;;;;;5035261;28;20230;-73
2024/01/22 02:00:51;;;;;;;5.77;2.03;;;10.90;99.90;;;;;;5052990;28;20207;-72
2024/01/22 02:03:17;;;;;;;9.83;2.87;;;;;;;;;;5052863;28;20221;-73
2024/01/22 02:05:43;;;;;;;7.07;2.57;;;10.50;99.90;;;;;;5052961;28;20196;-73
2024/01/22 02:08:09;;;;;;;6.83;2.10;;;;;;;;;;5034861;28;20212;-72
2024/01/22 02:10:35;;;;;;;5.90;1.67;;;11.20;99.90;;;;;;5053102;28;20177;-73
2024/01/22 02:13:04;;;;;;;6.80;2.00;;;;;;;;;;5052636;28;20538;-72
2024/01/22 02:15:30;;;;;;;7.07;2.13;;;;;;;;;;5052878;28;20165;-72
2024/01/22 02:18:02;;;;;;;7.87;2.50;;;10.90;99.90;;;;;;5052682;28;20232;-72
2024/01/22 02:20:29;;;;;;;9.63;2.60;;;10.70;99.90;;;;;;5052719;28;20636;-74
2024/01/22 02:22:59;;;;;;;6.93;2.40;;;10.70;99.90;;;;;;5052813;28;20173;-72
2024/01/22 02:25:25;;;;;;;10.40;2.83;;;;;;;;;;5052605;28;20219;-72
2024/01/22 02:27:51;;;;;;;11.93;3.30;;;10.20;99.90;;;;;;5034535;28;20197;-72
2024/01/22 02:30:17;;;;;;;12.33;3.43;;;10.10;99.90;;;;;;5052505;28;20169;-72
2024/01/22 02:32:43;;;;;;;12.17;3.30;;;;;;;;;;5052403;28;20667;-71
2024/01/22 02:35:08;;;;;;;9.93;3.10;;;10.00;99.90;;;;;;5052495;28;20177;-73
2024/01/22 02:37:34;;;;;;;8.47;2.83;;;;;;;;;;5052210;28;20697;-71
2024/01/22 02:40:00;;;;;;;11.90;3.67;;;;;;;;;;5020361;28;20174;-73
2024/01/22 02:42:26;;;;;;;12.53;3.50;;;;;;;;;;5031353;28;20189;-72
2024/01/22 02:44:52;;;;;;;8.97;2.40;;;9.80;99.90;;;;;;5032404;28;20628;-71
2024/01/22 02:47:18;;;;;;;10.67;2.87;;;;;;;;;;5050949;28;20180;-73
2024/01/22 02:49:44;;;;;;;10.23;2.80;;;;;;;;;;5051860;28;20196;-74
2024/01/22 02:52:10;;;;;;;9.20;3.13;;;;;;;;;;5034218;28;20203;-72
2024/01/22 02:54:36;;;;;;;10.40;3.07;;;9.60;99.90;;;;;;5052017;28;20643;-72
2024/01/22 02:57:02;;;;;;;11.17;3.40;;;;;;;;;;5033860;28;20185;-72
2024/01/22 02:59:28;;;;;;;11.57;2.90;;;9.70;99.90;;;;;;5051964;28;20216;-74
2024/01/22 03:01:54;;;;;;;11.47;3.10;;;;;;;;;;5051482;28;20228;-73
2024/01/22 03:04:19;;;;;;;11.47;3.43;;;9.60;99.90;;;;;;5051567;28;20162;-72
2024/01/22 03:06:45;;;;;;;10.77;2.93;;;;;;;;;;5051592;28;20179;-72
2024/01/22 03:09:11;;;;;;;11.33;3.20;;;9.40;99.90;;;;;;5051632;28;20283;-71
2024/01/22 03:11:37;;;;;;;14.87;3.87;;;;;;;;;;5051669;28;20248;-71
2024/01/22 03:14:03;;;;;;;11.43;3.13;;;;;;;;;;5051926;28;20207;-71
2024/01/22 03:16:29;;;;;;;17.03;4.40;;;;;;;;;;5051516;28;20532;-71
2024/01/22 03:18:55;;;;;;;14.30;3.77;;;9.40;99.90;;;;;;5051569;28;20207;-71
2024/01/22 03:21:21;;;;;;;15.60;4.20;;;;;;;;;;5051606;28;20208;-72
2024/01/22 03:23:47;;;;;;;6.00;2.03;;;;;;;;;;5051537;28;20184;-71
2024/01/22 03:26:20;;;;;;;12.57;3.53;;;9.70;99.90;;;;;;5051429;28;20173;-71
2024/01/22 03:28:50;;;;;;;9.13;2.57;;;9.60;99.90;;;;;;5033383;28;20217;-71
2024/01/22 03:31:26;;;;;;;12.73;3.77;;;9.50;99.90;;;;;;5051353;28;20632;-71
2024/01/22 03:33:53;;;;;;;16.80;4.07;;;9.50;99.90;;;;;;5051157;28;20177;-71
2024/01/22 03:36:20;;;;;;;11.53;3.67;;;9.70;99.90;;;;;;5051220;28;20167;-71
2024/01/22 03:38:46;;;;;;;14.00;3.37;;;9.70;99.90;;;;;;5033258;28;20185;-71
2024/01/22 03:41:12;;;;;;;12.63;3.83;;;9.60;99.90;;;;;;5051163;28;20522;-71
2024/01/22 03:43:38;;;;;;;17.33;4.50;;;;;;;;;;5051099;28;20173;-71
2024/01/22 03:46:04;;;;;;;12.90;3.63;;;9.30;99.90;;;;;;5050919;28;20177;-71
2024/01/22 03:48:29;;;;;;;16.40;4.47;;;9.70;99.90;;;;;;5051151;28;20217;-71
2024/01/22 03:50:55;;;;;;;15.90;4.47;;;;;;;;;;5050587;28;20621;-71
2024/01/22 03:53:21;;;;;;;17.10;4.57;;;9.70;99.90;;;;;;5033029;28;20268;-71
2024/01/22 03:55:47;;;;;;;15.10;3.70;;;;;;;;;;5050442;28;20173;-70
2024/01/22 03:58:13;;;;;;;19.10;4.43;;;9.40;99.90;;;;;;5050470;28;20180;-71
2024/01/22 04:00:39;;;;;;;20.03;4.80;;;;;;;;;;5039807;28;20232;-70
2024/01/22 04:03:05;;;;;;;21.80;5.37;;;9.60;99.90;;;;;;5049328;28;20213;-70
2024/01/22 04:05:31;;;;;;;16.27;4.40;;;8.00;99.90;;;;;;5050374;28;20248;-72
2024/01/22 04:07:57;;;;;;;15.83;4.53;;;9.60;99.90;;;;;;5049734;28;20211;-72
2024/01/22 04:10:24;;;;;;;14.00;3.80;;;9.40;99.90;;;;;;5050619;28;20644;-70
2024/01/22 04:12:50;;;;;;;17.67;4.77;;;9.60;99.90;;;;;;5050079;28;20189;-70
2024/01/22 04:15:16;;;;;;;23.50;5.37;;;9.50;99.90;;;;;;5055756;28;20200;-70
2024/01/22 04:17:42;;;;;;;15.83;4.20;;;9.60;99.90;;;;;;5057072;28;20203;-71
2024/01/22 04:20:08;;;;;;;22.30;5.47;;;9.50;99.90;;;;;;5057206;28;20237;-71
2024/01/22 04:22:34;;;;;;;26.87;6.17;;;9.40;99.90;;;;;;5057234;28;20176;-71
2024/01/22 04:25:00;;;;;;;16.20;3.93;;;;;;;;;;5057088;28;20187;-70
2024/01/22 04:27:25;;;;;;;22.90;5.43;;;9.30;99.90;;;;;;5057063;28;20184;-71
2024/01/22 04:29:51;;;;;;;27.53;6.07;;;;;;;;;;5057003;28;20331;-70
2024/01/22 04:32:17;;;;;;;18.43;4.97;;;9.40;99.90;;;;;;5057344;28;20173;-70
2024/01/22 04:34:43;;;;;;;19.67;5.33;;;9.60;99.90;;;;;;5057152;28;20337;-72
2024/01/22 04:37:09;;;;;;;19.80;4.97;;;;;;;;;;5057264;28;20173;-72
2024/01/22 04:39:35;;;;;;;22.70;6.17;;;9.60;99.90;;;;;;5056523;28;20177;-72
2024/01/22 04:42:01;;;;;;;19.63;5.27;;;9.00;99.90;;;;;;5056580;28;20181;-72
2024/01/22 04:44:30;;;;;;;21.27;5.17;;;9.10;99.90;;;;;;5056865;28;20184;-72
2024/01/22 04:46:59;;;;;;;19.30;4.90;;;9.10;99.90;;;;;;5057086;28;20653;-72
2024/01/22 04:49:25;;;;;;;19.17;5.17;;;9.00;99.90;;;;;;5056653;28;20226;-72
2024/01/22 04:51:51;;;;;;;20.10;4.90;;;9.10;99.90;;;;;;5057094;28;20173;-72
2024/01/22 04:54:16;;;;;;;17.67;4.87;;;9.00;99.90;;;;;;5056981;28;20209;-72
2024/01/22 04:56:45;;;;;;;25.27;5.77;;;9.30;99.90;;;;;;5056982;28;20260;-70
2024/01/22 04:59:11;;;;;;;24.37;5.70;;;;;;;;;;5056952;28;20169;-70
2024/01/22 05:01:37;;;;;;;25.50;6.23;;;;;;;;;;5056662;28;20782;-73
2024/01/22 05:04:04;;;;;;;17.20;4.60;;;9.10;99.90;;;;;;5057278;28;20228;-72
2024/01/22 05:06:30;;;;;;;18.63;5.27;;;;;;;;;;5057199;28;20169;-73
2024/01/22 05:08:56;;;;;;;17.53;4.63;;;8.80;99.90;;;;;;5056804;28;20209;-73
2024/01/22 05:11:22;;;;;;;25.90;5.43;;;7.80;99.90;;;;;;5057072;28;20173;-73
2024/01/22 05:13:49;;;;;;;21.93;5.67;;;9.10;99.90;;;;;;5056765;28;20628;-73
2024/01/22 05:16:16;;;;;;;18.40;4.63;;;9.10;99.90;;;;;;5057113;28;20176;-73
2024/01/22 05:18:42;;;;;;;25.93;5.77;;;;;;;;;;5056949;28;20291;-73
2024/01/22 05:21:07;;;;;;;23.27;5.43;;;9.20;99.90;;;;;;5056914;28;20260;-73
2024/01/22 05:23:33;;;;;;;25.47;5.83;;;9.00;99.90;;;;;;5056847;28;20538;-73
2024/01/22 05:25:59;;;;;;;28.97;6.47;;;;;;;;;;5053871;28;20233;-72
2024/01/22 05:28:24;;;;;;;20.00;5.40;;;9.10;99.90;;;;;;5053578;28;20711;-72
2024/01/22 05:30:50;;;;;;;14.23;4.77;;;;;;;;;;5053636;28;20173;-72
2024/01/22 05:33:16;;;;;;;23.17;5.97;;;9.10;99.90;;;;;;5019362;28;20235;-71
2024/01/22 05:35:42;;;;;;;14.70;4.57;;;;;;;;;;5053569;28;20169;-72
2024/01/22 05:38:08;;;;;;;15.00;4.40;;;8.80;99.90;;;;;;5053274;28;20180;-71
2024/01/22 05:40:34;;;;;;;25.33;6.13;;;;;;;;;;5053388;28;20181;-72
2024/01/22 05:42:59;;;;;;;29.03;6.60;;;8.90;99.90;;;;;;5053535;28;20161;-72
2024/01/22 05:45:26;;;;;;;29.73;7.13;;;8.40;99.90;;;;;;5053461;28;20540;-71
2024/01/22 05:47:52;;;;;;;21.27;5.50;;;9.10;99.90;;;;;;5053182;28;20300;-71
2024/01/22 05:50:18;;;;;;;29.27;5.87;;;;;;;;;;5053183;28;20252;-71
2024/01/22 05:52:44;;;;;;;23.17;6.63;;;9.00;99.90;;;;;;5053168;28;20196;-71
2024/01/22 05:55:09;;;;;;;25.90;6.10;;;9.00;99.90;;;;;;5053160;28;20549;-72
2024/01/22 05:57:35;;;;;;;27.03;6.50;;;9.00;99.90;;;;;;5053101;28;20222;-71
2024/01/22 06:00:09;;;;;;;19.77;5.87;;;9.00;99.90;;;;;;5035349;28;20188;-71
2024/01/22 06:02:35;;;;;;;27.77;6.50;;;;;;;;;;5052748;28;20217;-71
2024/01/22 06:05:01;;;;;;;25.90;6.17;;;;;;;;;;5052838;28;20173;-71
2024/01/22 06:07:27;;;;;;;26.90;6.53;;;;;;;;;;5053114;28;20309;-70
2024/01/22 06:09:53;;;;;;;20.97;5.20;;;;;;;;;;5052489;28;20180;-72
2024/01/22 06:12:19;;;;;;;33.93;6.13;;;;;;;;;;5052741;28;20264;-72
2024/01/22 06:14:45;;;;;;;25.47;6.63;;;9.40;99.90;;;;;;5051314;28;20182;-71
2024/01/22 06:17:10;;;;;;;24.77;6.03;;;8.80;99.90;;;;;;5052835;28;20180;-73
2024/01/22 06:19:36;;;;;;;20.97;5.17;;;9.00;99.90;;;;;;5052041;28;20177;-73
2024/01/22 06:22:03;;;;;;;23.97;5.77;;;;;;;;;;5052457;28;20173;-71
2024/01/22 06:24:30;;;;;;;30.07;6.53;;;;;;;;;;5052759;28;20169;-72
2024/01/22 06:26:56;;;;;;;29.87;6.17;;;;;;;;;;5034625;28;20252;-73
2024/01/22 06:29:21;;;;;;;31.87;6.80;;;8.90;99.90;;;;;;5052468;28;20209;-72
2024/01/22 06:31:47;;;;;;;24.67;5.90;;;;;;;;;;5034629;28;20170;-72
2024/01/22 06:34:13;;;;;;;22.47;5.73;;;8.90;99.90;;;;;;5052280;28;20177;-72
2024/01/22 06:36:38;;;;;;;22.37;5.07;;;9.10;99.90;;;;;;5052004;28;20537;-72
2024/01/22 06:39:08;;;;;;;29.60;5.77;;;;;;;;;;5040973;28;20633;-72
2024/01/22 06:41:36;;;;;;;25.23;5.90;;;8.60;99.90;;;;;;5072281;28;20551;-72
2024/01/22 06:44:02;;;;;;;26.13;6.10;;;;;;;;;;5072093;28;20263;-72
2024/01/22 06:46:28;;;;;;;28.97;6.10;;;9.00;99.90;;;;;;5072132;28;20186;-72
2024/01/22 06:48:53;;;;;;;21.60;5.37;;;8.80;99.90;;;;;;5071957;28;20212;-72
2024/01/22 06:51:19;;;;;;;27.10;5.83;;;9.10;99.90;;;;;;5072110;28;20175;-72
2024/01/22 06:53:45;;;;;;;25.30;5.60;;;;;;;;;;5072192;28;20176;-72
2024/01/22 06:56:11;;;;;;;29.37;5.03;;;8.90;99.90;;;;;;5071942;28;20666;-71
2024/01/22 06:58:37;;;;;;;19.00;4.80;;;8.90;99.90;;;;;;5071955;28;20184;-71
2024/01/22 07:01:07;;;;;;;18.50;4.60;;;8.90;99.90;;;;;;5072010;28;20535;-71
2024/01/22 07:03:33;;;;;;;14.33;4.53;;;;;;;;;;5071383;28;20228;-71
2024/01/22 07:05:59;;;;;;;23.37;4.20;;;;;;;;;;5071675;28;20168;-71
2024/01/22 07:08:24;;;;;;;21.13;4.20;;;8.80;99.90;;;;;;5071641;28;20211;-71
2024/01/22 07:10:50;;;;;;;19.73;3.77;;;8.80;99.90;;;;;;5071594;28;20208;-75
2024/01/22 07:13:16;;;;;;;17.37;3.50;;;;;;;;;;5062269;28;20173;-72
2024/01/22 07:15:42;;;;;;;16.50;3.40;;;8.40;99.90;;;;;;5051640;28;20595;-72
2024/01/22 07:18:08;;;;;;;19.07;3.70;;;;;;;;;;5051406;28;20185;-72
2024/01/22 07:20:34;;;;;;;21.67;4.33;;;;;;;;;;5051485;28;20215;-72
2024/01/22 07:23:00;;;;;;;16.80;3.47;;;8.50;99.90;;;;;;5051295;28;20180;-72
2024/01/22 07:25:26;;;;;;;25.57;4.90;;;8.40;99.90;;;;;;5051163;28;20182;-72
2024/01/22 07:27:52;;;;;;;13.77;3.07;;;8.70;99.90;;;;;;5051018;28;20235;-73
2024/01/22 07:30:18;;;;;;;14.77;3.70;;;8.60;99.90;;;;;;5051087;28;20169;-72
2024/01/22 07:32:44;;;;;;;18.67;3.67;;;8.40;99.90;;;;;;5050655;28;20203;-71
2024/01/22 07:35:11;;;;;;;16.30;3.73;;;8.50;99.90;;;;;;5051294;28;20208;-71
2024/01/22 07:37:42;;;;;;;17.27;4.17;;;8.40;99.90;;;;;;5051206;28;20184;-71
2024/01/22 07:40:11;;;;;;;16.83;4.20;;;8.10;99.90;;;;;;5050808;28;20180;-71
2024/01/22 07:42:40;;;;;;;24.50;4.40;;;8.70;99.90;;;;;;5051247;28;20635;-71
2024/01/22 07:45:07;;;;;;;17.07;4.03;;;8.30;99.90;;;;;;5051061;28;20295;-71
2024/01/22 07:47:33;;;;;;;18.70;4.00;;;8.90;99.90;;;;;;5039810;28;20201;-71
2024/01/22 07:49:59;;;;;;;16.97;3.80;;;8.30;99.90;;;;;;5049796;28;20196;-71
2024/01/22 07:52:25;;;;;;;17.10;4.30;;;8.20;99.90;;;;;;5049699;28;20560;-72
2024/01/22 07:54:51;;;;;;;14.97;3.73;;;8.40;99.90;;;;;;5050891;28;20172;-73
2024/01/22 07:57:16;;;;;;;22.37;4.13;;;8.40;99.90;;;;;;5050917;28;20165;-73
2024/01/22 07:59:42;;;;;;;18.13;4.00;;;8.60;99.90;;;;;;5050864;28;20169;-73
2024/01/22 08:02:10;;;;;;;26.80;5.23;;;8.50;99.90;;;;;;5050585;28;20574;-73
2024/01/22 08:04:36;;;;;;;25.17;4.83;;;8.40;99.90;;;;;;5032044;28;20216;-73
2024/01/22 08:07:03;;;;;;;16.37;4.40;;;8.50;99.90;;;;;;5050961;28;20173;-73
2024/01/22 08:09:32;;;;;;;23.87;4.77;;;8.50;99.90;;;;;;5050620;28;20569;-71
2024/01/22 08:11:58;;;;;;;22.47;4.83;;;8.80;99.90;;;;;;5025917;28;20194;-73
2024/01/22 08:14:23;;;;;;;16.13;4.70;;;8.40;99.90;;;;;;5049640;28;20947;-72
2024/01/22 08:16:49;;;;;;;14.77;4.23;;;8.70;99.90;;;;;;5050255;28;20667;-71
2024/01/22 08:19:16;;;;;;;21.27;4.60;;;8.60;99.90;;;;;;5050093;28;20534;-71
2024/01/22 08:21:42;;;;;;;20.47;4.50;;;;;;;;;;5032328;28;20215;-70
2024/01/22 08:24:08;;;;;;;15.33;3.97;;;;;;;;;;5050314;28;20189;-71
2024/01/22 08:26:34;;;;;;;15.00;3.90;;;;;;;;;;5049360;28;20173;-71
2024/01/22 08:29:00;;;;;;;22.47;5.03;;;;;;;;;;5040404;28;20220;-71
2024/01/22 08:31:26;;;;;;;19.33;4.57;;;;;;;;;;5050751;28;20173;-72
2024/01/22 08:33:54;;;;;;;10.63;3.63;;;;;;;;;;5050415;28;20178;-72
2024/01/22 08:36:20;;;;;;;20.90;4.87;;;8.60;99.90;;;;;;5051119;28;20177;-72
2024/01/22 08:38:45;;;;;;;12.13;3.90;;;8.70;99.90;;;;;;5050336;28;20200;-71
2024/01/22 08:41:11;;;;;;;11.50;4.33;;;8.70;99.90;;;;;;5049709;28;20644;-76
2024/01/22 08:43:37;;;;;;;12.13;3.63;;;8.30;99.90;;;;;;5050740;28;20251;-73
2024/01/22 08:46:03;;;;;;;14.63;4.30;;;8.40;99.90;;;;;;5050792;28;20593;-72
2024/01/22 08:48:30;;;;;;;14.13;4.43;;;;;;;;;;5053479;28;20614;-72
2024/01/22 08:50:56;;;;;;;12.10;3.43;;;;;;;;;;5056922;28;20256;-71
2024/01/22 08:53:22;;;;;;;8.43;2.87;;;8.50;99.90;;;;;;5052285;28;20222;-73
2024/01/22 08:55:48;;;;;;;12.83;3.80;;;;;;;;;;5054497;28;20170;-72
2024/01/22 08:58:15;;;;;;;19.10;3.50;;;8.50;99.90;;;;;;5027554;28;20177;-72
2024/01/22 09:00:41;;;;;;;18.07;3.40;;;8.80;99.90;;;;;;5052298;28;20187;-72
2024/01/22 09:03:07;;;;;;;13.83;3.07;;;;;;;;;;5053982;28;20707;-72
2024/01/22 09:05:34;;;;;;;14.17;3.60;;;9.10;99.90;;;;;;5053582;28;20178;-71
2024/01/22 09:07:59;;;;;;;16.47;3.47;;;9.50;99.90;;;;;;5049186;28;20236;-71
2024/01/22 09:10:26;;;;;;;16.70;3.90;;;9.00;99.90;;;;;;5033992;28;20209;-72
2024/01/22 09:12:55;;;;;;;25.27;3.90;;;9.30;99.90;;;;;;5034054;28;20243;-73
2024/01/22 09:15:21;;;;;;;13.80;3.20;;;;;;;;;;5034014;28;20260;-72
2024/01/22 09:17:47;;;;;;;12.20;3.50;;;9.20;99.90;;;;;;5034135;28;20170;-71
2024/01/22 09:20:14;;;;;;;24.87;3.50;;;8.80;99.90;;;;;;5043120;28;20662;-74
2024/01/22 09:22:40;;;;;;;18.30;3.10;;;;;;;;;;5053675;28;20500;-72
2024/01/22 09:25:08;;;;;;;19.57;3.87;;;9.20;99.90;;;;;;5053079;28;20205;-71
2024/01/22 09:27:34;;;;;;;19.73;3.40;;;;;;;;;;5053636;28;20180;-72
2024/01/22 09:30:00;;;;;;;11.83;2.40;;;;;;;;;;5054149;28;20181;-73
2024/01/22 09:32:26;;;;;;;18.63;4.23;;;;;;;;;;5051552;28;20173;-72
2024/01/22 09:34:52;;;;;;;24.87;4.33;;;9.00;99.90;;;;;;5041052;28;20247;-72
2024/01/22 09:37:18;;;;;;;22.63;4.40;;;9.40;99.90;;;;;;5052015;28;20173;-73
2024/01/22 09:39:44;;;;;;;26.63;4.60;;;9.10;99.90;;;;;;5048264;28;20185;-73
2024/01/22 09:42:14;;;;;;;22.43;4.63;;;9.80;99.90;;;;;;5033473;28;20625;-73
2024/01/22 09:44:41;;;;;;;18.67;3.90;;;10.20;99.90;;;;;;5040816;28;20317;-73
2024/01/22 09:47:09;;;;;;;22.87;4.63;;;10.30;99.90;;;;;;5053465;28;20534;-73
2024/01/22 09:49:36;;;;;;;20.90;4.43;;;10.80;99.90;;;;;;5035284;28;20231;-70
2024/01/22 09:52:03;;;;;;;17.57;4.27;;;11.10;99.90;;;;;;5052985;28;20177;-73
2024/01/22 09:54:30;;;;;;;28.23;5.57;;;10.20;99.90;;;;;;5051902;28;20778;-73
2024/01/22 09:56:57;;;;;;;29.80;5.27;;;9.90;99.90;;;;;;5053392;28;20169;-72
2024/01/22 09:59:28;;;;;;;23.17;5.23;;;10.00;99.90;;;;;;5053440;28;20181;-73
2024/01/22 10:01:55;;;;;;;20.93;4.23;;;9.90;99.90;;;;;;5034538;28;20563;-73
2024/01/22 10:04:23;;;;;;;23.20;4.90;;;;;;;;;;5052788;28;20191;-72
2024/01/22 10:06:50;;;;;;;22.33;4.60;;;10.40;99.90;;;;;;5052876;28;20161;-73
2024/01/22 10:09:17;;;;;;;24.87;4.43;;;;;;;;;;5052525;28;20209;-72
2024/01/22 10:11:44;;;;;;;28.37;5.10;;;9.60;99.90;;;;;;5051833;28;20184;-73
2024/01/22 10:14:10;;;;;;;27.10;4.87;;;9.80;99.90;;;;;;5052809;28;20183;-74
2024/01/22 10:16:36;;;;;;;32.73;6.33;;;9.60;99.90;;;;;;5051943;28;20264;-72
2024/01/22 10:19:08;;;;;;;18.23;4.43;;;9.50;99.90;;;;;;5052448;28;20200;-72
2024/01/22 10:21:35;;;;;;;33.87;6.07;;;9.60;99.90;;;;;;5051457;28;20260;-73
2024/01/22 10:24:08;;;;;;;20.50;5.03;;;10.50;99.90;;;;;;5052910;28;20588;-72
2024/01/22 10:26:35;;;;;;;26.17;4.63;;;9.20;99.90;;;;;;5052331;28;20181;-72
2024/01/22 10:29:18;;;;;;;18.60;4.20;;;9.10;99.90;;;;;;5061611;28;20219;-71
2024/01/22 10:31:59;;;;;;;17.90;3.93;;;9.30;99.90;;;;;;5050273;28;20191;-71
2024/01/22 10:34:29;;;;;;;10.23;2.53;;;9.00;99.90;;;;;;5051967;28;20268;-71
2024/01/22 10:37:08;;;;;;;15.37;3.50;;;9.10;99.90;;;;;;5032482;28;20172;-72
2024/01/22 10:39:35;;;;;;;5.23;2.30;;;9.40;99.90;;;;;;5037111;28;20693;-72
2024/01/22 10:42:27;;;;;;;5.70;2.07;;;9.50;99.90;;;;;;5052026;28;20178;-72
2024/01/22 10:44:53;;;;;;;5.70;2.30;;;10.30;99.90;;;;;;5048435;28;20631;-73
2024/01/22 10:47:19;;;;;;;8.83;2.13;;;9.20;99.90;;;;;;5052233;28;20165;-73
2024/01/22 10:49:45;;;;;;;6.07;2.03;;;10.40;99.90;;;;;;5051966;28;20312;-72
2024/01/22 10:52:13;;;;;;;6.83;1.70;;;10.20;99.90;;;;;;5051902;28;20180;-73
2024/01/22 10:54:39;;;;;;;8.30;1.60;;;10.90;99.90;;;;;;5033981;28;20211;-71
2024/01/22 10:57:09;;;;;;;10.10;1.60;;;11.60;99.90;;;;;;5052019;28;20177;-73
2024/01/22 10:59:38;;;;;;;11.23;2.00;;;11.00;99.90;;;;;;5051969;28;20184;-72
2024/01/22 11:02:10;;;;;;;5.33;1.43;;;11.10;99.90;;;;;;5051218;28;20687;-73
2024/01/22 11:04:47;;;;;;;11.43;1.90;;;12.00;99.90;;;;;;5051809;28;20270;-72
2024/01/22 11:07:12;;;;;;;12.20;2.23;;;12.30;99.90;;;;;;5051649;28;20173;-73
2024/01/22 11:09:39;;;;;;;20.93;1.90;;;12.60;99.90;;;;;;5051377;28;20205;-72
2024/01/22 11:12:12;;;;;;;15.63;1.60;;;11.60;99.90;;;;;;5051688;28;20881;-73
2024/01/22 11:14:40;;;;;;;7.43;1.20;;;10.60;99.90;;;;;;5051722;28;20254;-73
2024/01/22 11:17:06;;;;;;;13.93;2.33;;;;;;;;;;5051472;28;20170;-72
2024/01/22 11:19:33;;;;;;;13.97;2.03;;;11.50;99.90;;;;;;5045870;28;20181;-71
2024/01/22 11:22:02;;;;;;;19.23;2.47;;;12.40;99.90;;;;;;5040153;28;20264;-72
2024/01/22 11:24:28;;;;;;;20.23;2.97;;;13.20;99.90;;;;;;5050070;28;20644;-73
2024/01/22 11:26:57;;;;;;;13.03;2.13;;;12.60;99.90;;;;;;5052103;28;20184;-73
2024/01/22 11:29:28;;;;;;;15.00;3.03;;;12.80;99.90;;;;;;5050510;28;20216;-71
2024/01/22 11:31:54;;;;;;;17.10;2.60;;;12.80;99.90;;;;;;5050898;28;20195;-72
2024/01/22 11:34:44;;;;;;;15.43;2.40;;;14.20;99.90;;;;;;5050892;28;20255;-71
2024/01/22 11:37:10;;;;;;;9.53;1.80;;;;;;;;;;5045307;28;20674;-73
2024/01/22 11:39:35;;;;;;;14.00;2.37;;;14.20;99.90;;;;;;5052833;28;20177;-72
2024/01/22 11:42:07;;;;;;;14.83;2.30;;;13.00;99.90;;;;;;5050180;28;20194;-73
2024/01/22 11:44:43;;;;;;;22.30;2.60;;;14.40;99.90;;;;;;5045872;28;20201;-72
2024/01/22 11:47:12;;;;;;;9.35;2.13;;;14.60;99.90;;;;;;5050681;28;20172;-72
2024/01/22 11:49:38;;;;;;;15.38;3.05;;;14.80;99.90;;;;;;5033059;28;20304;-72
2024/01/22 11:52:21;;;;;;;13.57;2.38;;;15.40;99.90;;;;;;5050834;28;20173;-72
2024/01/22 11:54:55;;;;;;;18.85;2.53;;;14.00;99.90;;;;;;5047841;28;20184;-72
2024/01/22 11:57:21;;;;;;;17.08;3.17;;;14.00;99.90;;;;;;5047526;28;20180;-75
2024/01/22 12:00:05;;;;;;;20.35;3.70;;;15.10;99.90;;;;;;5051075;28;20223;-71
2024/01/22 12:02:32;;;;;;;21.83;3.47;;;14.00;99.90;;;;;;5050732;28;20212;-72
2024/01/22 12:05:03;;;;;;;18.15;2.80;;;12.50;99.90;;;;;;5050025;28;20173;-72
2024/01/22 12:07:43;;;;;;;25.17;3.77;;;12.40;99.90;;;;;;5050523;28;20185;-71
2024/01/22 12:10:22;;;;;;;20.97;2.93;;;11.30;99.90;;;;;;5050782;28;20832;-73
2024/01/22 12:12:51;;;;;;;26.47;3.90;;;12.10;99.90;;;;;;5050808;28;20215;-72
2024/01/22 12:15:16;;;;;;;32.50;3.73;;;11.40;99.90;;;;;;5068086;28;20179;-73
2024/01/22 12:17:46;;;;;;;26.13;3.77;;;11.30;99.90;;;;;;5070712;28;20169;-72
2024/01/22 12:20:12;;;;;;;23.47;3.57;;;10.40;99.90;;;;;;5070702;28;20168;-73
2024/01/22 12:22:39;;;;;;;21.03;2.93;;;;;;;;;;5070807;28;20183;-72
2024/01/22 12:25:12;;;;;;;29.23;4.37;;;10.80;99.90;;;;;;5070854;28;20164;-73
2024/01/22 12:27:38;;;;;;;26.00;3.33;;;13.70;99.90;;;;;;5070757;28;20176;-73
2024/01/22 12:30:08;;;;;;;15.57;2.70;;;15.70;99.90;;;;;;5070777;28;20180;-73
2024/01/22 12:32:35;;;;;;;6.63;1.50;;;15.50;1.00;;;;;;5070642;28;20176;-72
2024/01/22 12:35:02;;;;;;;7.10;1.45;;;17.10;99.90;;;;;;5071191;28;20180;-72
2024/01/22 12:37:31;;;;;;;8.70;1.00;;;17.70;99.90;;;;;;5074870;28;20180;-72
2024/01/22 12:40:09;;;;;;;8.40;1.27;;;18.20;99.90;;;;;;5074625;28;20263;-73
2024/01/22 12:42:35;;;;;;;5.45;1.13;;;;;;;;;;5073215;28;20539;-73
2024/01/22 12:45:02;;;;;;;6.00;0.98;;;18.90;99.90;;;;;;5072642;28;20624;-73
2024/01/22 12:47:30;;;;;;;7.68;1.10;;;18.30;99.90;;;;;;5054633;28;20183;-73
2024/01/22 12:49:56;;;;;;;5.65;1.05;;;;;;;;;;5072625;28;20204;-73
2024/01/22 12:52:22;;;;;;;5.38;0.93;;;;;;;;;;5072838;28;20171;-72
2024/01/22 12:54:49;;;;;;;5.15;1.30;;;17.10;99.90;;;;;;5072887;28;20208;-72
2024/01/22 12:57:15;;;;;;;4.82;0.77;;;;;;;;;;5073766;28;20160;-72
2024/01/22 12:59:46;;;;;;;7.45;1.45;;;13.30;1.00;;;;;;5074183;28;20169;-72
2024/01/22 13:02:12;;;;;;;9.43;1.48;;;;;;;;;;5056078;28;20238;-72
2024/01/22 13:04:37;;;;;;;8.30;1.65;;;13.20;1.00;;;;;;5074290;28;20173;-72
2024/01/22 13:07:04;;;;;;;11.63;1.80;;;;;;;;;;5074096;28;20181;-72
2024/01/22 13:09:30;;;;;;;15.88;2.58;;;;;;;;;;5073986;28;20208;-73
2024/01/22 13:11:55;;;;;;;19.48;2.85;;;13.50;99.90;;;;;;5074064;28;20168;-72
2024/01/22 13:14:21;;;;;;;13.55;2.17;;;13.20;99.90;;;;;;5048814;28;20181;-72